Time;durP1;ratioP1;P1;durP2;ratioP2;P2;SDS_P1;SDS_P2;PMS_P1;PMS_P2;Temp;Humidity;BMP_temperature;BMP_pressure;BME280_temperature;BME280_humidity;BME280_pressure;Samples;Min_cycle;Max_cycle;Signal;HPM_P1;HPM_P2
2021/10/29 00:00:10;;;;;;;6.45;4.32;;;7.60;99.90;;;;;;5055150;28;20508;-88
2021/10/29 00:02:36;;;;;;;7.22;4.63;;;7.80;99.90;;;;;;5055253;28;20373;-88
2021/10/29 00:05:03;;;;;;;6.85;5.18;;;7.90;99.90;;;;;;5055271;28;20476;-88
2021/10/29 00:07:29;;;;;;;7.82;4.60;;;7.70;99.90;;;;;;5055190;28;20035;-88
2021/10/29 00:09:55;;;;;;;8.90;4.80;;;7.40;99.90;;;;;;5055047;28;20033;-88
2021/10/29 00:12:22;;;;;;;6.82;4.80;;;7.60;99.90;;;;;;5055176;28;20411;-88
2021/10/29 00:14:49;;;;;;;6.53;5.07;;;7.40;99.90;;;;;;5055048;28;20021;-88
2021/10/29 00:17:16;;;;;;;9.13;5.50;;;7.20;99.90;;;;;;5057228;28;20024;-88
2021/10/29 00:19:43;;;;;;;11.00;5.80;;;7.10;99.90;;;;;;5059032;28;20025;-88
2021/10/29 00:22:09;;;;;;;9.38;5.55;;;7.00;99.90;;;;;;5077019;28;20032;-88
2021/10/29 00:24:35;;;;;;;9.35;5.50;;;6.90;99.90;;;;;;5059219;28;20039;-88
2021/10/29 00:27:00;;;;;;;7.97;5.30;;;6.80;99.90;;;;;;5059084;28;20119;-88
2021/10/29 00:29:26;;;;;;;11.48;5.40;;;7.00;99.90;;;;;;5058876;28;20024;-88
2021/10/29 00:31:52;;;;;;;9.30;5.20;;;7.20;99.90;;;;;;5058706;28;20032;-88
2021/10/29 00:34:19;;;;;;;8.07;5.07;;;7.10;99.90;;;;;;5058853;28;20065;-88
2021/10/29 00:36:45;;;;;;;9.90;4.65;;;7.50;99.90;;;;;;5042298;28;20047;-88
2021/10/29 00:39:10;;;;;;;12.43;4.53;;;7.80;99.90;;;;;;5058751;28;20108;-88
2021/10/29 00:41:36;;;;;;;7.32;4.55;;;8.00;99.90;;;;;;5058834;28;20123;-88
2021/10/29 00:44:05;;;;;;;6.22;4.10;;;7.80;99.90;;;;;;5058762;28;20484;-88
2021/10/29 00:46:31;;;;;;;7.75;4.78;;;7.60;99.90;;;;;;5058748;28;20094;-88
2021/10/29 00:48:57;;;;;;;7.15;4.35;;;7.80;99.90;;;;;;5076910;28;20480;-88
2021/10/29 00:51:23;;;;;;;8.63;4.78;;;7.70;99.90;;;;;;5058531;28;20028;-88
2021/10/29 00:53:50;;;;;;;6.22;4.43;;;7.80;99.90;;;;;;5068106;28;20033;-88
2021/10/29 00:56:17;;;;;;;6.57;4.47;;;7.90;99.90;;;;;;5071337;28;20031;-88
2021/10/29 00:58:43;;;;;;;6.57;4.35;;;8.00;99.90;;;;;;5062780;28;20021;-88
2021/10/29 01:01:09;;;;;;;6.50;4.10;;;8.20;99.90;;;;;;5059636;28;20052;-88
2021/10/29 01:03:39;;;;;;;5.95;3.60;;;8.00;99.90;;;;;;5077223;28;20033;-88
2021/10/29 01:06:06;;;;;;;7.78;4.70;;;8.00;99.90;;;;;;5058541;28;20032;-88
2021/10/29 01:08:34;;;;;;;7.03;4.80;;;7.70;99.90;;;;;;5058341;28;20116;-89
2021/10/29 01:11:01;;;;;;;8.00;4.53;;;7.70;99.90;;;;;;5058171;28;20031;-88
2021/10/29 01:13:27;;;;;;;6.00;4.35;;;7.50;99.90;;;;;;5058143;28;20562;-88
2021/10/29 01:15:55;;;;;;;6.88;4.38;;;7.40;99.90;;;;;;5058126;28;20417;-88
2021/10/29 01:18:21;;;;;;;8.05;4.43;;;7.20;99.90;;;;;;5058294;28;20017;-88
2021/10/29 01:20:47;;;;;;;7.10;4.35;;;7.00;99.90;;;;;;5058035;28;20165;-88
2021/10/29 01:23:13;;;;;;;6.75;4.80;;;6.80;99.90;;;;;;5057990;28;20099;-88
2021/10/29 01:25:38;;;;;;;7.45;4.63;;;6.70;99.90;;;;;;5058048;28;20475;-88
2021/10/29 01:28:11;;;;;;;6.78;3.80;;;6.80;99.90;;;;;;5057232;28;20033;-88
2021/10/29 01:30:37;;;;;;;6.80;3.90;;;7.10;99.90;;;;;;5057942;28;20039;-87
2021/10/29 01:33:02;;;;;;;6.60;4.22;;;7.20;99.90;;;;;;5058115;28;20044;-88
2021/10/29 01:35:28;;;;;;;6.53;4.15;;;7.20;99.90;;;;;;5057851;28;20020;-88
2021/10/29 01:37:54;;;;;;;5.32;4.00;;;7.30;99.90;;;;;;5075748;28;20086;-87
2021/10/29 01:40:20;;;;;;;5.88;3.78;;;7.10;99.90;;;;;;5057709;28;20472;-88
2021/10/29 01:42:48;;;;;;;6.07;4.10;;;7.20;99.90;;;;;;5057664;28;20067;-88
2021/10/29 01:45:15;;;;;;;10.80;4.45;;;7.10;99.90;;;;;;5057577;28;20116;-87
2021/10/29 01:47:40;;;;;;;6.90;4.00;;;6.90;99.90;;;;;;5058176;28;20567;-88
2021/10/29 01:50:08;;;;;;;5.20;3.85;;;6.70;99.90;;;;;;5057489;28;20108;-88
2021/10/29 01:52:35;;;;;;;7.50;3.78;;;6.60;99.90;;;;;;5057493;28;20052;-88
2021/10/29 01:55:01;;;;;;;4.80;3.47;;;6.80;99.90;;;;;;5057509;28;20476;-88
2021/10/29 01:57:27;;;;;;;5.10;3.90;;;6.70;99.90;;;;;;5057376;28;20031;-88
2021/10/29 01:59:52;;;;;;;6.57;3.10;;;6.70;99.90;;;;;;5057201;28;20559;-88
2021/10/29 02:02:18;;;;;;;5.57;3.83;;;7.00;99.90;;;;;;5057345;28;20055;-88
2021/10/29 02:04:44;;;;;;;4.88;3.83;;;7.10;99.90;;;;;;5075239;28;20100;-88
2021/10/29 02:07:10;;;;;;;6.18;4.00;;;6.80;99.90;;;;;;5075170;28;20021;-88
2021/10/29 02:09:35;;;;;;;4.72;3.40;;;6.60;99.90;;;;;;5057354;28;20476;-88
2021/10/29 02:12:01;;;;;;;5.07;3.35;;;6.80;99.90;;;;;;5074992;28;20063;-88
2021/10/29 02:14:27;;;;;;;5.35;3.80;;;6.80;99.90;;;;;;5057131;28;20070;-88
2021/10/29 02:16:53;;;;;;;6.30;3.88;;;6.80;99.90;;;;;;5056864;28;20431;-88
2021/10/29 02:19:19;;;;;;;4.40;3.28;;;6.90;99.90;;;;;;5074919;28;20047;-88
2021/10/29 02:21:45;;;;;;;6.15;3.55;;;7.00;99.90;;;;;;5056883;28;20052;-88
2021/10/29 02:24:11;;;;;;;5.55;3.42;;;7.50;99.90;;;;;;5074722;28;20025;-88
2021/10/29 02:26:37;;;;;;;5.50;3.92;;;7.70;99.90;;;;;;5056652;28;20033;-88
2021/10/29 02:29:04;;;;;;;9.95;3.50;;;7.80;99.90;;;;;;5056412;28;20031;-88
2021/10/29 02:31:30;;;;;;;5.75;3.90;;;7.60;99.90;;;;;;5056367;28;20498;-88
2021/10/29 02:33:56;;;;;;;7.65;3.38;;;7.30;99.90;;;;;;5056659;28;20059;-88
2021/10/29 02:36:22;;;;;;;4.10;3.15;;;7.00;99.90;;;;;;5056392;28;20029;-88
2021/10/29 02:38:49;;;;;;;4.60;3.22;;;7.40;99.90;;;;;;5056395;28;20169;-88
2021/10/29 02:41:15;;;;;;;4.82;3.30;;;7.60;99.90;;;;;;5055302;28;20053;-88
2021/10/29 02:43:47;;;;;;;4.65;3.40;;;7.40;99.90;;;;;;5056249;28;20035;-88
2021/10/29 02:46:13;;;;;;;5.25;3.42;;;7.10;99.90;;;;;;5056317;28;20078;-88
2021/10/29 02:48:39;;;;;;;12.15;3.30;;;7.10;99.90;;;;;;5056079;28;20030;-88
2021/10/29 02:51:05;;;;;;;6.63;3.15;;;7.20;99.90;;;;;;5055939;28;20460;-88
2021/10/29 02:53:32;;;;;;;6.80;3.55;;;7.20;99.90;;;;;;5057164;28;20021;-88
2021/10/29 02:55:58;;;;;;;3.92;3.17;;;6.70;99.90;;;;;;5056198;28;20039;-88
2021/10/29 02:58:27;;;;;;;6.45;3.55;;;6.50;99.90;;;;;;5056130;28;20020;-88
2021/10/29 03:00:53;;;;;;;5.72;3.92;;;6.50;99.90;;;;;;5055924;28;20496;-88
2021/10/29 03:03:20;;;;;;;4.80;2.90;;;6.30;99.90;;;;;;5074134;28;20397;-88
2021/10/29 03:05:45;;;;;;;6.13;3.80;;;6.70;99.90;;;;;;5056420;28;20115;-88
2021/10/29 03:08:11;;;;;;;3.90;3.15;;;6.70;99.90;;;;;;5065474;28;20067;-88
2021/10/29 03:10:37;;;;;;;5.63;3.50;;;6.70;99.90;;;;;;5066191;28;20059;-87
2021/10/29 03:13:03;;;;;;;4.72;3.38;;;6.60;99.90;;;;;;5077109;28;20021;-88
2021/10/29 03:15:29;;;;;;;7.78;4.18;;;6.70;99.90;;;;;;5056939;28;20021;-88
2021/10/29 03:17:55;;;;;;;6.72;4.05;;;6.70;99.90;;;;;;5056507;28;20108;-88
2021/10/29 03:20:21;;;;;;;5.40;3.95;;;6.60;99.90;;;;;;5055979;28;20021;-88
2021/10/29 03:22:46;;;;;;;8.30;4.38;;;6.30;99.90;;;;;;5055522;28;20029;-88
2021/10/29 03:25:12;;;;;;;4.47;3.30;;;6.10;99.90;;;;;;5055550;28;20028;-88
2021/10/29 03:27:38;;;;;;;5.43;3.90;;;6.30;99.90;;;;;;5055819;28;20024;-88
2021/10/29 03:30:05;;;;;;;4.72;3.65;;;6.30;99.90;;;;;;5055461;28;20025;-88
2021/10/29 03:32:31;;;;;;;5.25;3.17;;;6.60;99.90;;;;;;5055492;28;20024;-88
2021/10/29 03:34:58;;;;;;;5.32;3.35;;;6.70;99.90;;;;;;5055362;28;20109;-87
2021/10/29 03:40:00;;;;;;;8.00;4.00;;;7.30;99.90;;;;;;5073540;28;20016;-87
2021/10/29 03:42:31;;;;;;;6.25;3.45;;;7.30;99.90;;;;;;5055529;28;20052;-88
2021/10/29 03:45:06;;;;;;;8.57;4.30;;;6.90;99.90;;;;;;5073500;28;20024;-87
2021/10/29 03:47:39;;;;;;;8.60;3.88;;;7.00;99.90;;;;;;5055313;28;20372;-88
2021/10/29 03:50:24;;;;;;;5.53;3.75;;;7.00;99.90;;;;;;5055167;28;20377;-88
2021/10/29 03:53:06;;;;;;;7.07;3.92;;;7.10;99.90;;;;;;5054906;28;20491;-88
2021/10/29 03:55:39;;;;;;;7.90;3.63;;;6.90;99.90;;;;;;5055367;28;20024;-88
2021/10/29 03:58:05;;;;;;;5.55;3.83;;;7.00;99.90;;;;;;5055209;28;20541;-88
2021/10/29 04:00:32;;;;;;;6.25;3.25;;;7.00;99.90;;;;;;5055000;28;20513;-87
2021/10/29 04:03:02;;;;;;;5.15;3.30;;;6.90;99.90;;;;;;5055132;28;20052;-88
2021/10/29 04:05:33;;;;;;;7.72;4.00;;;7.20;99.90;;;;;;5055803;28;20369;-87
2021/10/29 04:07:59;;;;;;;9.50;3.80;;;6.70;99.90;;;;;;5055091;28;20020;-88
2021/10/29 04:10:27;;;;;;;7.38;3.70;;;6.40;99.90;;;;;;5054748;28;20036;-88
2021/10/29 04:12:55;;;;;;;9.10;4.10;;;6.40;99.90;;;;;;5072913;28;20096;-88
2021/10/29 04:15:21;;;;;;;5.32;3.80;;;6.30;99.90;;;;;;5055710;28;20025;-88
2021/10/29 04:17:47;;;;;;;5.70;3.97;;;6.30;99.90;;;;;;5054908;28;20020;-88
2021/10/29 04:20:13;;;;;;;7.60;4.78;;;6.20;99.90;;;;;;5054948;28;20458;-87
2021/10/29 04:22:40;;;;;;;12.85;7.93;;;5.90;99.90;;;;;;5072862;28;20025;-87
2021/10/29 04:25:06;;;;;;;10.32;6.47;;;6.20;99.90;;;;;;5054816;28;20028;-87
2021/10/29 04:27:34;;;;;;;5.35;3.30;;;6.20;99.90;;;;;;5054854;28;20032;-87
2021/10/29 04:30:01;;;;;;;5.82;3.60;;;6.40;99.90;;;;;;5054727;28;20024;-87
2021/10/29 04:32:27;;;;;;;6.22;3.60;;;6.60;99.90;;;;;;5054773;28;20024;-87
2021/10/29 04:34:53;;;;;;;6.60;4.15;;;6.80;99.90;;;;;;5055129;28;20017;-87
2021/10/29 04:37:19;;;;;;;7.45;4.38;;;7.00;99.90;;;;;;5054725;28;20023;-87
2021/10/29 04:39:47;;;;;;;7.82;3.65;;;6.50;99.90;;;;;;5055382;28;20040;-87
2021/10/29 04:42:13;;;;;;;6.38;3.92;;;6.50;99.90;;;;;;5054810;28;20419;-87
2021/10/29 04:44:39;;;;;;;6.53;4.20;;;6.20;99.90;;;;;;5054776;28;20024;-87
2021/10/29 04:47:05;;;;;;;7.18;3.92;;;6.20;99.90;;;;;;5054729;28;20361;-87
2021/10/29 04:49:30;;;;;;;8.65;4.68;;;6.20;99.90;;;;;;5054569;28;20025;-87
2021/10/29 04:51:58;;;;;;;8.70;4.05;;;6.20;99.90;;;;;;5072454;28;20480;-87
2021/10/29 04:54:25;;;;;;;7.85;4.15;;;6.40;99.90;;;;;;5054568;28;20025;-87
2021/10/29 04:56:51;;;;;;;7.78;5.03;;;6.70;99.90;;;;;;5054399;28;20017;-87
2021/10/29 04:59:18;;;;;;;7.63;4.85;;;7.00;99.90;;;;;;5054790;28;20144;-87
2021/10/29 05:01:46;;;;;;;10.13;6.20;;;6.50;99.90;;;;;;5055160;28;20110;-87
2021/10/29 05:04:16;;;;;;;10.23;4.32;;;6.50;99.90;;;;;;5056367;28;20373;-87
2021/10/29 05:06:43;;;;;;;11.15;5.20;;;6.60;99.90;;;;;;5058213;28;20032;-87
2021/10/29 05:09:09;;;;;;;9.95;5.38;;;6.50;99.90;;;;;;5058362;28;20021;-87
2021/10/29 05:11:34;;;;;;;8.32;5.18;;;6.40;99.90;;;;;;5058147;28;20024;-87
2021/10/29 05:14:00;;;;;;;8.10;4.80;;;6.40;99.90;;;;;;5058141;28;20393;-87
2021/10/29 05:16:26;;;;;;;7.38;4.30;;;6.50;99.90;;;;;;5076351;28;20024;-87
2021/10/29 05:18:52;;;;;;;10.40;4.60;;;6.60;99.90;;;;;;5058108;28;20036;-87
2021/10/29 05:21:18;;;;;;;7.65;5.18;;;6.90;99.90;;;;;;5058293;28;20032;-87
2021/10/29 05:23:43;;;;;;;5.82;4.22;;;6.30;99.90;;;;;;5062180;28;20035;-87
2021/10/29 05:26:09;;;;;;;5.93;4.00;;;6.00;99.90;;;;;;5079154;28;20090;-87
2021/10/29 05:28:35;;;;;;;7.85;3.60;;;5.90;99.90;;;;;;5058739;28;20468;-87
2021/10/29 05:31:01;;;;;;;7.10;4.18;;;5.90;99.90;;;;;;5075905;28;20078;-87
2021/10/29 05:33:27;;;;;;;6.90;3.88;;;6.10;99.90;;;;;;5057988;28;20025;-86
2021/10/29 05:35:53;;;;;;;7.32;3.67;;;6.40;99.90;;;;;;5057736;28;20397;-88
2021/10/29 05:38:20;;;;;;;6.15;3.78;;;6.30;99.90;;;;;;5075671;28;20020;-87
2021/10/29 05:40:46;;;;;;;9.00;3.88;;;6.20;99.90;;;;;;5057578;28;20073;-87
2021/10/29 05:43:11;;;;;;;4.90;3.20;;;6.40;99.90;;;;;;5057513;28;20472;-86
2021/10/29 05:45:37;;;;;;;7.75;3.38;;;6.40;99.90;;;;;;5057460;28;20028;-87
2021/10/29 05:48:06;;;;;;;7.38;3.88;;;6.30;99.90;;;;;;5057342;28;20027;-87
2021/10/29 05:50:32;;;;;;;5.70;3.65;;;6.00;99.90;;;;;;5057285;28;20032;-87
2021/10/29 05:53:00;;;;;;;6.35;3.80;;;6.20;99.90;;;;;;5057227;28;20493;-86
2021/10/29 05:55:26;;;;;;;7.93;3.75;;;6.50;99.90;;;;;;5057243;28;20024;-87
2021/10/29 05:57:54;;;;;;;5.13;3.45;;;6.30;99.90;;;;;;5057111;28;20498;-87
2021/10/29 06:00:27;;;;;;;5.25;3.42;;;6.30;99.90;;;;;;5057003;28;20514;-87
2021/10/29 06:02:54;;;;;;;9.13;3.83;;;6.60;99.90;;;;;;5057124;28;20024;-87
2021/10/29 06:05:20;;;;;;;6.88;4.18;;;6.20;99.90;;;;;;5057874;28;20448;-87
2021/10/29 06:07:46;;;;;;;8.15;3.90;;;6.10;99.90;;;;;;5056953;28;20017;-87
2021/10/29 06:10:14;;;;;;;6.07;3.72;;;6.30;99.90;;;;;;5056890;28;20466;-86
2021/10/29 06:12:43;;;;;;;7.75;3.90;;;6.50;99.90;;;;;;5057175;28;20024;-87
2021/10/29 06:15:10;;;;;;;9.57;3.80;;;6.50;99.90;;;;;;5056568;28;20541;-87
2021/10/29 06:17:37;;;;;;;4.43;3.10;;;6.60;99.90;;;;;;5056788;28;20020;-87
2021/10/29 06:20:05;;;;;;;10.82;3.83;;;6.60;99.90;;;;;;5056718;28;20435;-87
2021/10/29 06:22:37;;;;;;;6.47;3.10;;;6.80;99.90;;;;;;5056656;28;20028;-87
2021/10/29 06:25:10;;;;;;;7.82;4.30;;;6.40;99.90;;;;;;5056691;28;20021;-87
2021/10/29 06:30:03;;;;;;;5.60;3.83;;;6.40;99.90;;;;;;5074416;28;20503;-87
2021/10/29 06:32:29;;;;;;;4.90;3.35;;;6.00;99.90;;;;;;5056607;28;20025;-88
2021/10/29 06:34:55;;;;;;;8.52;4.47;;;6.30;99.90;;;;;;5056440;28;20389;-87
2021/10/29 06:37:21;;;;;;;6.57;4.43;;;6.10;99.90;;;;;;5056463;28;20021;-86
2021/10/29 06:39:49;;;;;;;11.55;4.20;;;6.30;99.90;;;;;;5056364;28;20021;-87
2021/10/29 06:42:37;;;;;;;6.80;3.83;;;6.70;99.90;;;;;;5056446;28;20117;-87
2021/10/29 06:45:39;;;;;;;9.18;3.95;;;7.20;99.90;;;;;;5073925;28;20036;-87
2021/10/29 07:42:29;;;;;;;10.27;4.85;;;8.40;99.90;;;;;;5086642;28;20107;-89
2021/10/29 07:44:54;;;;;;;11.80;5.05;;;8.30;99.90;;;;;;5058087;28;20024;-88
2021/10/29 07:47:20;;;;;;;5.70;4.00;;;8.20;99.90;;;;;;5056273;28;20021;-89
2021/10/29 07:49:46;;;;;;;7.95;3.85;;;8.20;99.90;;;;;;5056885;28;20028;-89
2021/10/29 07:52:14;;;;;;;9.60;5.45;;;8.50;99.90;;;;;;5055969;28;20039;-88
2021/10/29 07:54:44;;;;;;;7.20;4.57;;;8.40;99.90;;;;;;5055575;28;20028;-88
2021/10/29 07:57:12;;;;;;;5.57;4.05;;;8.50;99.90;;;;;;5056061;28;20021;-88
2021/10/29 07:59:37;;;;;;;8.63;3.95;;;8.60;99.90;;;;;;5054962;28;20052;-87
2021/10/29 08:02:03;;;;;;;9.43;4.10;;;8.70;99.90;;;;;;5073410;28;20043;-86
2021/10/29 08:04:29;;;;;;;6.47;4.00;;;8.50;99.90;;;;;;5055338;28;20028;-88
2021/10/29 08:06:55;;;;;;;10.75;6.35;;;8.40;99.90;;;;;;5055000;28;20081;-87
2021/10/29 08:09:26;;;;;;;12.27;4.07;;;8.20;99.90;;;;;;5055150;28;20020;-87
2021/10/29 08:11:52;;;;;;;5.60;3.88;;;8.20;99.90;;;;;;5055059;28;20040;-87
2021/10/29 08:14:19;;;;;;;7.65;3.72;;;8.50;99.90;;;;;;5073195;28;20032;-87
2021/10/29 08:16:45;;;;;;;7.60;3.80;;;8.70;99.90;;;;;;5054980;28;20492;-88
2021/10/29 08:19:11;;;;;;;4.50;3.28;;;8.90;99.90;;;;;;5054819;28;20091;-87
2021/10/29 08:21:37;;;;;;;15.32;6.95;;;8.90;99.90;;;;;;5072824;28;20036;-88
2021/10/29 08:24:04;;;;;;;12.95;5.50;;;9.00;99.90;;;;;;5054858;28;20024;-88
2021/10/29 08:26:31;;;;;;;10.63;6.72;;;9.10;99.90;;;;;;5054830;28;20099;-88
2021/10/29 08:28:57;;;;;;;15.32;7.45;;;9.20;99.90;;;;;;5054861;28;20025;-88
2021/10/29 08:31:22;;;;;;;16.23;9.02;;;9.40;99.90;;;;;;5054903;28;20498;-88
2021/10/29 08:33:49;;;;;;;7.55;4.90;;;9.70;99.90;;;;;;5055090;28;20388;-88
2021/10/29 08:36:16;;;;;;;6.65;4.20;;;9.60;99.90;;;;;;5054821;28;20051;-89
2021/10/29 08:38:43;;;;;;;9.25;4.03;;;9.80;99.90;;;;;;5075721;28;20021;-88
2021/10/29 08:41:09;;;;;;;8.40;5.45;;;9.90;99.90;;;;;;5058781;28;20032;-89
2021/10/29 08:43:35;;;;;;;11.82;4.97;;;10.00;99.90;;;;;;5058880;28;20033;-90
2021/10/29 08:46:02;;;;;;;10.63;6.05;;;10.30;99.90;;;;;;5058749;28;20126;-89
2021/10/29 08:48:29;;;;;;;6.82;4.45;;;10.70;99.90;;;;;;5058649;28;20050;-88
2021/10/29 08:50:55;;;;;;;11.18;4.90;;;10.80;99.90;;;;;;5059063;28;20060;-89
2021/10/29 08:53:21;;;;;;;6.47;4.35;;;10.90;99.90;;;;;;5058551;28;20153;-89
2021/10/29 08:55:48;;;;;;;7.80;4.32;;;11.10;99.90;;;;;;5058668;28;20020;-89
2021/10/29 08:58:13;;;;;;;5.88;4.07;;;11.30;99.90;;;;;;5058682;28;20025;-89
2021/10/29 09:00:44;;;;;;;7.47;3.90;;;11.30;99.90;;;;;;5058471;28;20051;-89
2021/10/29 09:03:24;;;;;;;8.10;3.72;;;11.50;99.90;;;;;;5058553;28;20025;-90
2021/10/29 09:06:19;;;;;;;11.07;4.47;;;11.60;99.90;;;;;;5058539;28;20115;-89
2021/10/29 09:09:05;;;;;;;7.75;3.67;;;11.60;99.90;;;;;;5058528;28;20035;-90
2021/10/29 09:34:03;;;;;;;7.07;4.30;;;12.70;99.90;;;;;;5076198;28;20025;-90
2021/10/29 09:36:37;;;;;;;8.25;4.07;;;12.90;99.90;;;;;;5076153;28;20104;-90
2021/10/29 09:39:28;;;;;;;5.47;3.50;;;13.40;99.90;;;;;;5057910;28;20173;-89
2021/10/29 09:42:08;;;;;;;6.60;3.65;;;13.50;99.90;;;;;;5057898;28;20439;-90
2021/10/29 09:44:46;;;;;;;6.55;3.53;;;13.70;99.90;;;;;;5075963;28;20484;-89
2021/10/29 09:47:17;;;;;;;6.43;3.80;;;14.10;99.90;;;;;;5057770;28;20506;-90
2021/10/29 09:50:02;;;;;;;10.80;3.65;;;14.50;99.90;;;;;;5057634;28;20438;-89
2021/10/29 09:52:49;;;;;;;6.13;3.58;;;14.80;99.90;;;;;;5059411;28;20036;-88
2021/10/29 09:56:00;;;;;;;7.57;3.70;;;14.90;99.90;;;;;;5079236;28;20020;-89
2021/10/29 09:58:03;;;;;;;8.07;4.03;;;15.40;99.90;;;;;;5080255;28;20442;-89
2021/10/29 10:00:30;;;;;;;6.75;3.88;;;15.70;99.90;;;;;;5059628;28;20048;-90
2021/10/29 10:02:58;;;;;;;10.13;3.53;;;15.90;99.90;;;;;;5076244;28;20027;-90
2021/10/29 10:05:25;;;;;;;5.20;3.00;;;16.10;99.90;;;;;;5057681;28;20484;-90
2021/10/29 10:07:51;;;;;;;5.25;3.30;;;16.20;99.90;;;;;;5057475;28;20025;-90
2021/10/29 10:10:18;;;;;;;5.47;3.38;;;16.30;99.90;;;;;;5057489;28;20033;-89
2021/10/29 10:12:46;;;;;;;4.90;3.35;;;16.50;99.90;;;;;;5057347;28;20120;-90
2021/10/29 10:15:13;;;;;;;6.57;3.38;;;16.60;99.90;;;;;;5057196;28;20024;-89
2021/10/29 10:17:39;;;;;;;5.53;3.28;;;16.90;99.90;;;;;;5075131;28;20089;-90
2021/10/29 10:20:07;;;;;;;4.78;3.33;;;17.10;99.90;;;;;;5075328;28;20435;-89
2021/10/29 10:22:39;;;;;;;7.70;3.53;;;17.30;99.90;;;;;;5057115;28;20137;-90
2021/10/29 10:25:15;;;;;;;5.20;3.60;;;17.40;99.90;;;;;;5057177;28;20078;-90
2021/10/29 10:42:07;;;;;;;9.65;3.20;;;18.40;99.90;;;;;;5075409;28;20086;-89
2021/10/29 10:47:05;;;;;;;6.13;3.20;;;19.00;99.90;;;;;;5074359;28;20384;-89
2021/10/29 10:49:34;;;;;;;4.75;2.88;;;19.40;99.90;;;;;;5056717;28;20024;-90
2021/10/29 10:52:18;;;;;;;4.63;2.95;;;19.30;99.90;;;;;;5056489;28;20530;-90
2021/10/29 10:54:53;;;;;;;10.32;3.53;;;19.30;99.90;;;;;;5074588;28;20013;-91
2021/10/29 10:57:28;;;;;;;5.22;2.65;;;19.20;99.90;;;;;;5056641;28;20074;-90
2021/10/29 11:00:35;;;;;;;9.50;3.20;;;19.50;99.90;;;;;;5056328;28;20442;-91
2021/10/29 11:11:21;;;;;;;4.80;2.67;;;20.20;99.90;;;;;;5074106;28;20033;-89
2021/10/29 11:13:56;;;;;;;6.30;3.22;;;20.40;99.90;;;;;;5056963;28;20017;-88
2021/10/29 11:16:35;;;;;;;4.47;2.40;;;20.60;99.90;;;;;;5074434;28;20037;-90
2021/10/29 11:19:10;;;;;;;4.25;2.75;;;20.60;99.90;;;;;;5055900;28;20024;-90
2021/10/29 11:21:50;;;;;;;4.18;2.90;;;20.60;99.90;;;;;;5057649;28;20119;-88
2021/10/29 11:24:26;;;;;;;5.22;2.85;;;21.20;99.90;;;;;;5055615;28;20031;-91
2021/10/29 11:27:01;;;;;;;6.97;2.92;;;21.30;99.80;;;;;;5055846;28;20028;-88
2021/10/29 11:29:27;;;;;;;7.68;3.38;;;21.70;98.10;;;;;;5055627;28;20024;-89
2021/10/29 11:31:53;;;;;;;8.23;3.00;;;21.80;98.30;;;;;;5055547;28;20123;-90
2021/10/29 11:34:18;;;;;;;5.78;3.00;;;22.20;97.30;;;;;;5055632;28;20044;-88
2021/10/29 11:36:50;;;;;;;10.20;3.60;;;22.50;96.10;;;;;;5055662;28;20024;-90
2021/10/29 11:39:22;;;;;;;8.05;3.33;;;22.50;95.90;;;;;;5055488;28;20150;-90
2021/10/29 11:41:50;;;;;;;6.00;3.28;;;22.50;96.20;;;;;;5055533;28;20028;-89
2021/10/29 11:44:19;;;;;;;9.60;4.88;;;22.90;94.50;;;;;;5055502;28;20020;-90
2021/10/29 11:46:46;;;;;;;7.40;3.97;;;23.10;93.90;;;;;;5055314;28;20484;-90
2021/10/29 11:49:27;;;;;;;5.68;3.20;;;23.10;93.40;;;;;;5055730;28;20024;-90
2021/10/29 11:51:55;;;;;;;6.20;2.85;;;23.60;92.50;;;;;;5055308;28;20024;-90
2021/10/29 11:54:24;;;;;;;6.47;2.75;;;23.80;91.70;;;;;;5055393;28;20016;-90
2021/10/29 12:07:27;;;;;;;8.18;4.03;;;24.30;87.20;;;;;;4982118;28;20030;-90
2021/10/29 12:10:05;;;;;;;4.85;2.97;;;24.50;86.50;;;;;;4990828;28;20110;-89
2021/10/29 12:12:45;;;;;;;7.80;3.38;;;24.50;86.40;;;;;;5028797;28;20553;-89
2021/10/29 12:15:22;;;;;;;10.85;3.65;;;24.90;84.80;;;;;;5043383;28;20024;-87
2021/10/29 12:18:06;;;;;;;7.53;4.22;;;25.10;82.30;;;;;;5056745;28;20388;-90
2021/10/29 12:20:41;;;;;;;7.00;3.55;;;25.20;82.60;;;;;;5057729;28;20492;-90
2021/10/29 12:23:16;;;;;;;6.53;3.38;;;24.50;81.60;;;;;;5057542;28;20025;-90
2021/10/29 12:28:25;;;;;;;7.05;3.30;;;24.60;80.50;;;;;;5073348;28;20512;-90
2021/10/29 12:39:22;;;;;;;7.18;3.05;;;24.80;80.00;;;;;;5074437;28;20116;-90
2021/10/29 12:53:16;;;;;;;7.18;3.03;;;26.10;70.10;;;;;;5073762;28;20031;-91
2021/10/29 13:01:58;;;;;;;5.90;2.72;;;27.80;64.10;;;;;;5072665;28;20076;-91
2021/10/29 13:04:20;;;;;;;3.75;2.63;;;27.50;63.20;;;;;;5067647;28;20457;-90
2021/10/29 13:06:55;;;;;;;5.80;2.55;;;27.30;65.50;;;;;;5072631;28;20031;-90
2021/10/29 13:09:28;;;;;;;4.53;2.85;;;27.10;62.40;;;;;;5072739;28;20098;-90
2021/10/29 13:12:02;;;;;;;4.68;2.75;;;26.40;64.30;;;;;;5054480;28;20491;-90
2021/10/29 13:14:34;;;;;;;4.85;2.63;;;26.50;64.00;;;;;;5054920;28;20078;-90
2021/10/29 13:17:03;;;;;;;4.22;2.45;;;26.80;60.70;;;;;;5054652;28;20036;-88
2021/10/29 13:19:44;;;;;;;5.15;2.30;;;26.70;61.90;;;;;;5054491;28;20023;-88
2021/10/29 13:52:16;;;;;;;4.40;2.75;;;25.60;64.70;;;;;;5075856;28;20028;-90
2021/10/29 13:55:51;;;;;;;5.05;3.03;;;25.90;63.50;;;;;;5057955;28;20146;-90
2021/10/29 14:03:25;;;;;;;5.05;3.08;;;24.10;67.50;;;;;;5075565;28;20020;-90
2021/10/29 14:28:57;;;;;;;7.18;3.38;;;25.00;66.40;;;;;;5065549;28;20035;-88
2021/10/29 14:31:29;;;;;;;4.57;2.77;;;25.30;65.80;;;;;;5057864;28;20043;-90
2021/10/29 14:34:08;;;;;;;6.95;3.20;;;25.10;66.30;;;;;;5057342;28;20374;-87
2021/10/29 14:39:40;;;;;;;4.63;2.78;;;26.40;64.20;;;;;;5020693;28;20037;-88
2021/10/29 14:42:54;;;;;;;5.75;3.25;;;26.10;64.00;;;;;;5057077;28;20107;-88
2021/10/29 14:45:01;;;;;;;5.25;2.30;;;25.70;64.00;;;;;;5064159;28;20033;-88
2021/10/29 14:47:45;;;;;;;7.55;2.90;;;26.00;64.30;;;;;;5074719;28;20020;-88
2021/10/29 14:50:24;;;;;;;5.18;2.17;;;25.30;64.80;;;;;;5056575;28;20040;-89
2021/10/29 15:46:22;;;;;;;12.85;5.60;;;16.30;94.80;;;;;;5074243;28;20031;-87
2021/10/29 15:49:03;;;;;;;8.45;4.65;;;15.90;95.90;;;;;;5055017;28;20403;-87
2021/10/29 15:51:29;;;;;;;12.15;4.07;;;15.40;97.50;;;;;;5055541;28;20056;-87
2021/10/29 15:53:55;;;;;;;7.25;2.97;;;15.00;98.50;;;;;;5073604;28;20031;-87
2021/10/29 16:17:22;;;;;;;6.18;4.03;;;13.70;99.90;;;;;;5073540;28;20548;-88
2021/10/29 16:19:48;;;;;;;4.65;3.00;;;13.50;99.90;;;;;;5055253;28;20048;-88
2021/10/29 16:22:21;;;;;;;7.22;3.55;;;13.30;99.90;;;;;;5055190;28;20484;-89
2021/10/29 16:25:01;;;;;;;16.15;5.07;;;13.20;99.90;;;;;;5055321;28;20469;-89
2021/10/29 16:27:44;;;;;;;7.00;3.10;;;13.00;99.90;;;;;;5055331;28;20025;-85
2021/10/29 16:30:11;;;;;;;7.00;3.35;;;12.90;99.90;;;;;;5055794;28;20029;-89
2021/10/29 16:35:20;;;;;;;9.65;3.92;;;12.60;99.90;;;;;;5089626;28;20031;-89
2021/10/29 16:37:47;;;;;;;10.70;3.70;;;12.60;99.90;;;;;;5076671;28;20021;-88
2021/10/29 16:40:14;;;;;;;10.35;4.20;;;12.50;99.90;;;;;;5056404;28;20476;-88
2021/10/29 16:42:41;;;;;;;9.38;4.47;;;12.30;99.90;;;;;;5055502;28;20090;-89
2021/10/29 16:45:08;;;;;;;10.40;5.25;;;12.00;99.90;;;;;;5038716;28;20037;-89
2021/10/29 16:47:35;;;;;;;9.68;4.10;;;11.80;99.90;;;;;;5054811;28;20166;-89
2021/10/29 16:50:02;;;;;;;8.05;4.65;;;11.80;99.90;;;;;;5054980;28;20399;-89
2021/10/29 16:52:29;;;;;;;6.50;4.13;;;11.80;99.90;;;;;;5054829;28;20025;-89
2021/10/29 16:54:55;;;;;;;13.32;5.18;;;11.70;99.90;;;;;;5072691;28;20066;-89
2021/10/29 16:57:21;;;;;;;12.85;6.15;;;11.70;99.90;;;;;;5072597;28;20099;-89
2021/10/29 16:59:47;;;;;;;7.57;5.10;;;11.60;99.90;;;;;;5056688;28;20060;-89
2021/10/29 17:02:13;;;;;;;7.85;5.28;;;11.60;99.90;;;;;;5061448;28;20472;-88
2021/10/29 17:04:39;;;;;;;8.65;6.25;;;11.60;99.90;;;;;;5060613;28;20078;-87
2021/10/29 17:07:07;;;;;;;12.57;8.40;;;11.50;99.90;;;;;;5041768;28;20442;-88
2021/10/29 17:09:33;;;;;;;13.45;6.57;;;11.50;99.90;;;;;;5058396;28;20035;-88
2021/10/29 17:11:59;;;;;;;12.10;7.15;;;11.20;99.90;;;;;;5058183;28;20037;-87
2021/10/29 17:14:26;;;;;;;15.10;7.05;;;11.00;99.90;;;;;;5058627;28;20032;-88
2021/10/29 17:16:52;;;;;;;14.52;9.90;;;11.00;99.90;;;;;;5058178;28;20021;-87
2021/10/29 17:19:18;;;;;;;12.65;7.03;;;11.00;99.90;;;;;;5058152;28;20439;-87
2021/10/29 17:21:44;;;;;;;11.93;6.45;;;10.90;99.90;;;;;;5076271;28;20021;-87
2021/10/29 17:24:09;;;;;;;12.15;6.97;;;10.90;99.90;;;;;;5041601;28;20052;-87
2021/10/29 17:26:36;;;;;;;13.05;6.93;;;10.70;99.90;;;;;;5075982;28;20021;-87
2021/10/29 17:29:02;;;;;;;53.35;31.77;;;10.60;99.90;;;;;;5058241;28;20017;-88
2021/10/29 17:31:29;;;;;;;60.92;38.28;;;10.50;99.90;;;;;;5057832;28;20032;-87
2021/10/29 17:33:55;;;;;;;13.93;9.75;;;10.60;99.90;;;;;;5058147;28;20075;-88
2021/10/29 17:36:20;;;;;;;24.95;17.40;;;10.60;99.90;;;;;;5058056;28;20043;-87
2021/10/29 17:38:46;;;;;;;25.42;11.45;;;10.60;99.90;;;;;;5058063;28;20048;-88
2021/10/29 17:41:13;;;;;;;24.13;13.32;;;10.60;99.90;;;;;;5058180;28;20120;-88
2021/10/29 17:43:39;;;;;;;21.50;13.00;;;10.60;99.90;;;;;;5058026;28;20120;-87